sensor_id;sensor_type;location;lat;lon;timestamp;P1;durP1;ratioP1;P2;durP2;ratioP2
24084;SDS011;12268;52.110;5.548;2023-11-19T00:02:20;25.35;;;9.38;;
24084;SDS011;12268;52.110;5.548;2023-11-19T00:04:46;19.23;;;10.65;;
24084;SDS011;12268;52.110;5.548;2023-11-19T00:07:12;20.52;;;10.32;;
24084;SDS011;12268;52.110;5.548;2023-11-19T00:09:39;28.25;;;11.65;;
24084;SDS011;12268;52.110;5.548;2023-11-19T00:12:05;18.25;;;8.98;;
24084;SDS011;12268;52.110;5.548;2023-11-19T00:14:31;16.13;;;9.18;;
24084;SDS011;12268;52.110;5.548;2023-11-19T00:16:57;19.58;;;9.27;;
24084;SDS011;12268;52.110;5.548;2023-11-19T00:19:22;19.13;;;9.18;;
24084;SDS011;12268;52.110;5.548;2023-11-19T00:21:48;21.95;;;8.52;;
24084;SDS011;12268;52.110;5.548;2023-11-19T00:24:13;20.83;;;8.90;;
24084;SDS011;12268;52.110;5.548;2023-11-19T00:26:41;24.60;;;9.07;;
24084;SDS011;12268;52.110;5.548;2023-11-19T00:29:07;28.63;;;9.18;;
24084;SDS011;12268;52.110;5.548;2023-11-19T00:31:33;24.02;;;9.02;;
24084;SDS011;12268;52.110;5.548;2023-11-19T00:33:59;18.65;;;7.00;;
24084;SDS011;12268;52.110;5.548;2023-11-19T00:36:24;15.95;;;7.60;;
24084;SDS011;12268;52.110;5.548;2023-11-19T00:38:50;24.23;;;6.88;;
24084;SDS011;12268;52.110;5.548;2023-11-19T00:41:17;19.50;;;7.28;;
24084;SDS011;12268;52.110;5.548;2023-11-19T00:43:43;29.40;;;7.70;;
24084;SDS011;12268;52.110;5.548;2023-11-19T00:46:09;21.73;;;6.63;;
24084;SDS011;12268;52.110;5.548;2023-11-19T00:48:36;23.45;;;7.90;;
24084;SDS011;12268;52.110;5.548;2023-11-19T00:51:02;22.65;;;6.18;;
24084;SDS011;12268;52.110;5.548;2023-11-19T00:53:29;23.50;;;5.65;;
24084;SDS011;12268;52.110;5.548;2023-11-19T00:55:54;15.93;;;5.82;;
24084;SDS011;12268;52.110;5.548;2023-11-19T00:58:20;22.10;;;6.20;;
24084;SDS011;12268;52.110;5.548;2023-11-19T01:00:45;21.00;;;5.45;;
24084;SDS011;12268;52.110;5.548;2023-11-19T01:03:12;22.88;;;5.97;;
24084;SDS011;12268;52.110;5.548;2023-11-19T01:05:37;18.55;;;5.50;;
24084;SDS011;12268;52.110;5.548;2023-11-19T01:08:03;18.13;;;5.53;;
24084;SDS011;12268;52.110;5.548;2023-11-19T01:10:29;27.38;;;6.47;;
24084;SDS011;12268;52.110;5.548;2023-11-19T01:12:55;24.90;;;5.97;;
24084;SDS011;12268;52.110;5.548;2023-11-19T01:15:21;18.70;;;5.63;;
24084;SDS011;12268;52.110;5.548;2023-11-19T01:17:46;21.52;;;5.32;;
24084;SDS011;12268;52.110;5.548;2023-11-19T01:20:12;19.75;;;5.05;;
24084;SDS011;12268;52.110;5.548;2023-11-19T01:22:38;16.90;;;4.88;;
24084;SDS011;12268;52.110;5.548;2023-11-19T01:25:05;27.73;;;6.32;;
24084;SDS011;12268;52.110;5.548;2023-11-19T01:27:31;21.08;;;4.95;;
24084;SDS011;12268;52.110;5.548;2023-11-19T01:29:56;24.00;;;5.88;;
24084;SDS011;12268;52.110;5.548;2023-11-19T01:32:22;24.95;;;5.60;;
24084;SDS011;12268;52.110;5.548;2023-11-19T01:34:49;27.50;;;5.72;;
24084;SDS011;12268;52.110;5.548;2023-11-19T01:37:14;22.58;;;4.40;;
24084;SDS011;12268;52.110;5.548;2023-11-19T01:39:43;27.02;;;4.68;;
24084;SDS011;12268;52.110;5.548;2023-11-19T01:42:09;19.83;;;4.38;;
24084;SDS011;12268;52.110;5.548;2023-11-19T01:44:34;23.42;;;4.65;;
24084;SDS011;12268;52.110;5.548;2023-11-19T01:47:00;30.70;;;5.78;;
24084;SDS011;12268;52.110;5.548;2023-11-19T01:49:26;26.90;;;5.22;;
24084;SDS011;12268;52.110;5.548;2023-11-19T01:51:52;28.88;;;5.30;;
24084;SDS011;12268;52.110;5.548;2023-11-19T01:54:18;28.70;;;4.50;;
24084;SDS011;12268;52.110;5.548;2023-11-19T01:56:43;34.00;;;5.50;;
24084;SDS011;12268;52.110;5.548;2023-11-19T01:59:09;23.77;;;4.20;;
24084;SDS011;12268;52.110;5.548;2023-11-19T02:01:38;28.80;;;5.22;;
24084;SDS011;12268;52.110;5.548;2023-11-19T02:04:05;24.38;;;4.35;;
24084;SDS011;12268;52.110;5.548;2023-11-19T02:06:33;22.20;;;4.45;;
24084;SDS011;12268;52.110;5.548;2023-11-19T02:09:01;38.85;;;5.03;;
24084;SDS011;12268;52.110;5.548;2023-11-19T02:11:32;22.95;;;4.90;;
24084;SDS011;12268;52.110;5.548;2023-11-19T02:13:58;20.33;;;4.15;;
24084;SDS011;12268;52.110;5.548;2023-11-19T02:16:24;24.33;;;4.45;;
24084;SDS011;12268;52.110;5.548;2023-11-19T02:18:49;23.88;;;4.32;;
24084;SDS011;12268;52.110;5.548;2023-11-19T02:21:15;21.65;;;4.28;;
24084;SDS011;12268;52.110;5.548;2023-11-19T02:23:42;22.98;;;4.40;;
24084;SDS011;12268;52.110;5.548;2023-11-19T02:26:13;33.97;;;4.85;;
24084;SDS011;12268;52.110;5.548;2023-11-19T02:28:43;29.27;;;4.55;;
24084;SDS011;12268;52.110;5.548;2023-11-19T02:31:09;27.13;;;4.70;;
24084;SDS011;12268;52.110;5.548;2023-11-19T02:33:36;36.38;;;5.07;;
24084;SDS011;12268;52.110;5.548;2023-11-19T02:36:05;26.05;;;5.28;;
24084;SDS011;12268;52.110;5.548;2023-11-19T02:38:32;27.83;;;5.05;;
24084;SDS011;12268;52.110;5.548;2023-11-19T02:40:58;35.60;;;5.45;;
24084;SDS011;12268;52.110;5.548;2023-11-19T02:43:27;31.20;;;5.10;;
24084;SDS011;12268;52.110;5.548;2023-11-19T02:45:53;27.73;;;4.28;;
24084;SDS011;12268;52.110;5.548;2023-11-19T02:48:20;31.67;;;5.70;;
24084;SDS011;12268;52.110;5.548;2023-11-19T02:50:46;44.00;;;6.38;;
24084;SDS011;12268;52.110;5.548;2023-11-19T02:53:12;36.72;;;5.35;;
24084;SDS011;12268;52.110;5.548;2023-11-19T02:55:38;31.02;;;4.55;;
24084;SDS011;12268;52.110;5.548;2023-11-19T02:58:05;33.58;;;5.00;;
24084;SDS011;12268;52.110;5.548;2023-11-19T03:00:45;27.98;;;4.78;;
24084;SDS011;12268;52.110;5.548;2023-11-19T03:03:19;28.05;;;3.85;;
24084;SDS011;12268;52.110;5.548;2023-11-19T03:05:48;31.48;;;4.85;;
24084;SDS011;12268;52.110;5.548;2023-11-19T03:08:17;33.28;;;5.57;;
24084;SDS011;12268;52.110;5.548;2023-11-19T03:10:43;33.90;;;6.38;;
24084;SDS011;12268;52.110;5.548;2023-11-19T03:13:11;42.78;;;5.40;;
24084;SDS011;12268;52.110;5.548;2023-11-19T03:15:41;28.48;;;5.25;;
24084;SDS011;12268;52.110;5.548;2023-11-19T03:18:08;27.35;;;4.45;;
24084;SDS011;12268;52.110;5.548;2023-11-19T03:20:33;29.40;;;4.93;;
24084;SDS011;12268;52.110;5.548;2023-11-19T03:22:59;37.45;;;6.05;;
24084;SDS011;12268;52.110;5.548;2023-11-19T03:25:26;30.65;;;5.07;;
24084;SDS011;12268;52.110;5.548;2023-11-19T03:30:23;28.58;;;4.68;;
24084;SDS011;12268;52.110;5.548;2023-11-19T03:32:49;42.15;;;5.82;;
24084;SDS011;12268;52.110;5.548;2023-11-19T03:35:15;37.67;;;6.15;;
24084;SDS011;12268;52.110;5.548;2023-11-19T03:37:41;32.83;;;5.20;;
24084;SDS011;12268;52.110;5.548;2023-11-19T03:40:06;35.67;;;5.90;;
24084;SDS011;12268;52.110;5.548;2023-11-19T03:42:32;37.47;;;6.28;;
24084;SDS011;12268;52.110;5.548;2023-11-19T03:44:58;31.95;;;5.63;;
24084;SDS011;12268;52.110;5.548;2023-11-19T03:47:24;39.08;;;7.25;;
24084;SDS011;12268;52.110;5.548;2023-11-19T03:49:50;39.90;;;5.95;;
24084;SDS011;12268;52.110;5.548;2023-11-19T03:52:16;29.52;;;5.15;;
24084;SDS011;12268;52.110;5.548;2023-11-19T03:54:44;34.83;;;5.60;;
24084;SDS011;12268;52.110;5.548;2023-11-19T03:57:10;40.72;;;5.53;;
24084;SDS011;12268;52.110;5.548;2023-11-19T03:59:40;32.90;;;5.28;;
24084;SDS011;12268;52.110;5.548;2023-11-19T04:02:06;33.97;;;6.07;;
24084;SDS011;12268;52.110;5.548;2023-11-19T04:04:32;40.92;;;5.78;;
24084;SDS011;12268;52.110;5.548;2023-11-19T04:06:58;31.50;;;5.07;;
24084;SDS011;12268;52.110;5.548;2023-11-19T04:09:25;35.83;;;5.97;;
24084;SDS011;12268;52.110;5.548;2023-11-19T04:11:51;42.33;;;5.88;;
24084;SDS011;12268;52.110;5.548;2023-11-19T04:14:17;30.55;;;4.95;;
24084;SDS011;12268;52.110;5.548;2023-11-19T04:16:43;38.13;;;4.78;;
24084;SDS011;12268;52.110;5.548;2023-11-19T04:19:10;32.08;;;5.40;;
24084;SDS011;12268;52.110;5.548;2023-11-19T04:21:36;37.03;;;5.63;;
24084;SDS011;12268;52.110;5.548;2023-11-19T04:24:02;42.17;;;6.05;;
24084;SDS011;12268;52.110;5.548;2023-11-19T04:26:28;30.05;;;6.05;;
24084;SDS011;12268;52.110;5.548;2023-11-19T04:28:53;31.83;;;5.00;;
24084;SDS011;12268;52.110;5.548;2023-11-19T04:31:19;30.88;;;5.45;;
24084;SDS011;12268;52.110;5.548;2023-11-19T04:33:44;34.15;;;5.35;;
24084;SDS011;12268;52.110;5.548;2023-11-19T04:36:10;19.35;;;3.92;;
24084;SDS011;12268;52.110;5.548;2023-11-19T04:38:36;33.17;;;5.38;;
24084;SDS011;12268;52.110;5.548;2023-11-19T04:41:03;40.53;;;5.28;;
24084;SDS011;12268;52.110;5.548;2023-11-19T04:43:30;29.20;;;4.68;;
24084;SDS011;12268;52.110;5.548;2023-11-19T04:45:57;36.63;;;5.55;;
24084;SDS011;12268;52.110;5.548;2023-11-19T04:48:22;32.60;;;5.28;;
24084;SDS011;12268;52.110;5.548;2023-11-19T04:50:48;35.05;;;5.65;;
24084;SDS011;12268;52.110;5.548;2023-11-19T04:53:15;36.90;;;5.80;;
24084;SDS011;12268;52.110;5.548;2023-11-19T04:55:42;36.70;;;5.57;;
24084;SDS011;12268;52.110;5.548;2023-11-19T04:58:08;35.70;;;5.80;;
24084;SDS011;12268;52.110;5.548;2023-11-19T05:00:34;36.60;;;5.07;;
24084;SDS011;12268;52.110;5.548;2023-11-19T05:02:59;44.58;;;5.85;;
24084;SDS011;12268;52.110;5.548;2023-11-19T05:05:25;36.83;;;5.88;;
24084;SDS011;12268;52.110;5.548;2023-11-19T05:07:50;22.13;;;4.22;;
24084;SDS011;12268;52.110;5.548;2023-11-19T05:10:16;37.50;;;5.95;;
24084;SDS011;12268;52.110;5.548;2023-11-19T05:12:41;43.85;;;5.72;;
24084;SDS011;12268;52.110;5.548;2023-11-19T05:15:07;39.00;;;5.90;;
24084;SDS011;12268;52.110;5.548;2023-11-19T05:17:33;37.00;;;5.45;;
24084;SDS011;12268;52.110;5.548;2023-11-19T05:19:59;33.58;;;5.30;;
24084;SDS011;12268;52.110;5.548;2023-11-19T05:22:24;36.05;;;6.47;;
24084;SDS011;12268;52.110;5.548;2023-11-19T05:24:51;34.55;;;6.35;;
24084;SDS011;12268;52.110;5.548;2023-11-19T05:27:17;39.03;;;4.82;;
24084;SDS011;12268;52.110;5.548;2023-11-19T05:29:42;45.75;;;6.22;;
24084;SDS011;12268;52.110;5.548;2023-11-19T05:32:09;38.92;;;5.60;;
24084;SDS011;12268;52.110;5.548;2023-11-19T05:34:35;39.75;;;5.85;;
24084;SDS011;12268;52.110;5.548;2023-11-19T05:37:00;37.28;;;4.55;;
24084;SDS011;12268;52.110;5.548;2023-11-19T05:39:27;27.02;;;4.70;;
24084;SDS011;12268;52.110;5.548;2023-11-19T05:41:53;39.05;;;5.00;;
24084;SDS011;12268;52.110;5.548;2023-11-19T05:44:18;35.58;;;6.45;;
24084;SDS011;12268;52.110;5.548;2023-11-19T05:46:44;39.10;;;5.50;;
24084;SDS011;12268;52.110;5.548;2023-11-19T05:49:10;38.35;;;4.80;;
24084;SDS011;12268;52.110;5.548;2023-11-19T05:51:39;27.15;;;5.32;;
24084;SDS011;12268;52.110;5.548;2023-11-19T05:54:08;28.27;;;4.78;;
24084;SDS011;12268;52.110;5.548;2023-11-19T05:56:35;38.50;;;5.60;;
24084;SDS011;12268;52.110;5.548;2023-11-19T05:59:00;42.50;;;6.75;;
24084;SDS011;12268;52.110;5.548;2023-11-19T06:01:28;34.75;;;5.93;;
24084;SDS011;12268;52.110;5.548;2023-11-19T06:03:54;29.27;;;4.93;;
24084;SDS011;12268;52.110;5.548;2023-11-19T06:06:20;32.42;;;5.88;;
24084;SDS011;12268;52.110;5.548;2023-11-19T06:08:45;32.67;;;4.60;;
24084;SDS011;12268;52.110;5.548;2023-11-19T06:11:11;36.20;;;5.43;;
24084;SDS011;12268;52.110;5.548;2023-11-19T06:13:43;35.70;;;5.88;;
24084;SDS011;12268;52.110;5.548;2023-11-19T06:16:09;36.33;;;5.20;;
24084;SDS011;12268;52.110;5.548;2023-11-19T06:18:36;35.88;;;5.70;;
24084;SDS011;12268;52.110;5.548;2023-11-19T06:21:02;36.63;;;5.85;;
24084;SDS011;12268;52.110;5.548;2023-11-19T06:23:27;40.47;;;6.43;;
24084;SDS011;12268;52.110;5.548;2023-11-19T06:25:53;29.63;;;4.40;;
24084;SDS011;12268;52.110;5.548;2023-11-19T06:28:18;36.97;;;5.57;;
24084;SDS011;12268;52.110;5.548;2023-11-19T06:30:44;53.25;;;7.82;;
24084;SDS011;12268;52.110;5.548;2023-11-19T06:33:12;38.80;;;6.55;;
24084;SDS011;12268;52.110;5.548;2023-11-19T06:35:38;40.53;;;6.43;;
24084;SDS011;12268;52.110;5.548;2023-11-19T06:38:04;27.35;;;5.13;;
24084;SDS011;12268;52.110;5.548;2023-11-19T06:40:30;28.00;;;4.82;;
24084;SDS011;12268;52.110;5.548;2023-11-19T06:42:56;34.67;;;5.32;;
24084;SDS011;12268;52.110;5.548;2023-11-19T06:45:22;33.95;;;5.45;;
24084;SDS011;12268;52.110;5.548;2023-11-19T06:47:47;43.50;;;5.68;;
24084;SDS011;12268;52.110;5.548;2023-11-19T06:50:13;24.55;;;4.43;;
24084;SDS011;12268;52.110;5.548;2023-11-19T06:52:39;43.10;;;6.43;;
24084;SDS011;12268;52.110;5.548;2023-11-19T06:55:05;28.38;;;4.53;;
24084;SDS011;12268;52.110;5.548;2023-11-19T06:57:31;43.63;;;5.85;;
24084;SDS011;12268;52.110;5.548;2023-11-19T06:59:57;41.95;;;4.88;;
24084;SDS011;12268;52.110;5.548;2023-11-19T07:02:23;41.47;;;5.40;;
24084;SDS011;12268;52.110;5.548;2023-11-19T07:04:49;34.22;;;5.07;;
24084;SDS011;12268;52.110;5.548;2023-11-19T07:07:16;42.15;;;5.65;;
24084;SDS011;12268;52.110;5.548;2023-11-19T07:09:41;38.08;;;5.63;;
24084;SDS011;12268;52.110;5.548;2023-11-19T07:12:07;42.38;;;5.20;;
24084;SDS011;12268;52.110;5.548;2023-11-19T07:14:33;33.28;;;4.68;;
24084;SDS011;12268;52.110;5.548;2023-11-19T07:16:59;45.63;;;5.88;;
24084;SDS011;12268;52.110;5.548;2023-11-19T07:19:25;44.65;;;5.00;;
24084;SDS011;12268;52.110;5.548;2023-11-19T07:21:51;34.47;;;4.95;;
24084;SDS011;12268;52.110;5.548;2023-11-19T07:24:19;39.05;;;6.70;;
24084;SDS011;12268;52.110;5.548;2023-11-19T07:26:45;37.17;;;5.82;;
24084;SDS011;12268;52.110;5.548;2023-11-19T07:29:12;40.10;;;5.50;;
24084;SDS011;12268;52.110;5.548;2023-11-19T07:31:38;37.63;;;5.63;;
24084;SDS011;12268;52.110;5.548;2023-11-19T07:34:04;46.05;;;6.47;;
24084;SDS011;12268;52.110;5.548;2023-11-19T07:36:31;29.92;;;5.35;;
24084;SDS011;12268;52.110;5.548;2023-11-19T07:38:58;38.72;;;7.38;;
24084;SDS011;12268;52.110;5.548;2023-11-19T07:41:24;47.08;;;6.35;;
24084;SDS011;12268;52.110;5.548;2023-11-19T07:43:50;32.00;;;5.25;;
24084;SDS011;12268;52.110;5.548;2023-11-19T07:46:16;36.40;;;4.72;;
24084;SDS011;12268;52.110;5.548;2023-11-19T07:48:44;34.55;;;5.63;;
24084;SDS011;12268;52.110;5.548;2023-11-19T07:51:12;36.40;;;4.93;;
24084;SDS011;12268;52.110;5.548;2023-11-19T07:53:38;31.63;;;4.45;;
24084;SDS011;12268;52.110;5.548;2023-11-19T07:56:04;39.17;;;6.15;;
24084;SDS011;12268;52.110;5.548;2023-11-19T07:58:30;42.97;;;6.20;;
24084;SDS011;12268;52.110;5.548;2023-11-19T08:00:56;45.03;;;5.72;;
24084;SDS011;12268;52.110;5.548;2023-11-19T08:03:21;31.65;;;4.63;;
24084;SDS011;12268;52.110;5.548;2023-11-19T08:05:47;43.28;;;6.45;;
24084;SDS011;12268;52.110;5.548;2023-11-19T08:08:13;45.90;;;6.30;;
24084;SDS011;12268;52.110;5.548;2023-11-19T08:10:38;31.52;;;5.80;;
24084;SDS011;12268;52.110;5.548;2023-11-19T08:13:05;29.63;;;4.85;;
24084;SDS011;12268;52.110;5.548;2023-11-19T08:15:30;45.90;;;6.45;;
24084;SDS011;12268;52.110;5.548;2023-11-19T08:17:56;36.78;;;5.93;;
24084;SDS011;12268;52.110;5.548;2023-11-19T08:20:22;35.55;;;5.65;;
24084;SDS011;12268;52.110;5.548;2023-11-19T08:22:48;34.40;;;4.70;;
24084;SDS011;12268;52.110;5.548;2023-11-19T08:25:14;35.17;;;5.97;;
24084;SDS011;12268;52.110;5.548;2023-11-19T08:27:39;25.80;;;4.55;;
24084;SDS011;12268;52.110;5.548;2023-11-19T08:30:05;31.40;;;5.38;;
24084;SDS011;12268;52.110;5.548;2023-11-19T08:32:31;44.08;;;6.60;;
24084;SDS011;12268;52.110;5.548;2023-11-19T08:34:57;41.17;;;5.07;;
24084;SDS011;12268;52.110;5.548;2023-11-19T08:37:23;30.20;;;5.03;;
24084;SDS011;12268;52.110;5.548;2023-11-19T08:50:10;38.38;;;5.75;;
24084;SDS011;12268;52.110;5.548;2023-11-19T08:52:36;33.45;;;4.45;;
24084;SDS011;12268;52.110;5.548;2023-11-19T08:55:02;26.92;;;4.07;;
24084;SDS011;12268;52.110;5.548;2023-11-19T08:57:28;34.58;;;4.47;;
24084;SDS011;12268;52.110;5.548;2023-11-19T08:59:53;42.97;;;5.70;;
24084;SDS011;12268;52.110;5.548;2023-11-19T09:02:19;37.47;;;4.82;;
24084;SDS011;12268;52.110;5.548;2023-11-19T09:04:44;43.70;;;5.80;;
24084;SDS011;12268;52.110;5.548;2023-11-19T09:07:10;43.65;;;5.85;;
24084;SDS011;12268;52.110;5.548;2023-11-19T09:09:36;39.75;;;5.68;;
24084;SDS011;12268;52.110;5.548;2023-11-19T09:12:02;38.55;;;5.75;;
24084;SDS011;12268;52.110;5.548;2023-11-19T09:14:28;32.22;;;4.95;;
24084;SDS011;12268;52.110;5.548;2023-11-19T09:16:55;20.42;;;4.28;;
24084;SDS011;12268;52.110;5.548;2023-11-19T09:19:21;29.40;;;4.97;;
24084;SDS011;12268;52.110;5.548;2023-11-19T09:21:46;27.05;;;4.65;;
24084;SDS011;12268;52.110;5.548;2023-11-19T09:24:13;38.95;;;5.18;;
24084;SDS011;12268;52.110;5.548;2023-11-19T09:26:38;20.80;;;3.60;;
24084;SDS011;12268;52.110;5.548;2023-11-19T09:29:06;22.67;;;3.20;;
24084;SDS011;12268;52.110;5.548;2023-11-19T09:31:32;35.85;;;4.75;;
24084;SDS011;12268;52.110;5.548;2023-11-19T09:33:58;28.50;;;4.05;;
24084;SDS011;12268;52.110;5.548;2023-11-19T09:36:23;25.42;;;3.85;;
24084;SDS011;12268;52.110;5.548;2023-11-19T09:38:49;36.20;;;4.93;;
24084;SDS011;12268;52.110;5.548;2023-11-19T09:41:15;34.67;;;4.80;;
24084;SDS011;12268;52.110;5.548;2023-11-19T09:43:41;33.20;;;4.65;;
24084;SDS011;12268;52.110;5.548;2023-11-19T09:46:09;32.58;;;5.70;;
24084;SDS011;12268;52.110;5.548;2023-11-19T09:48:36;31.15;;;5.50;;
24084;SDS011;12268;52.110;5.548;2023-11-19T09:51:04;33.30;;;4.50;;
24084;SDS011;12268;52.110;5.548;2023-11-19T09:53:30;30.35;;;4.63;;
24084;SDS011;12268;52.110;5.548;2023-11-19T09:55:56;29.05;;;5.28;;
24084;SDS011;12268;52.110;5.548;2023-11-19T09:58:25;31.33;;;5.35;;
24084;SDS011;12268;52.110;5.548;2023-11-19T10:00:51;36.17;;;5.07;;
24084;SDS011;12268;52.110;5.548;2023-11-19T10:03:17;29.13;;;5.22;;
24084;SDS011;12268;52.110;5.548;2023-11-19T10:05:42;34.65;;;5.30;;
24084;SDS011;12268;52.110;5.548;2023-11-19T10:08:08;28.13;;;3.83;;
24084;SDS011;12268;52.110;5.548;2023-11-19T10:10:35;35.47;;;5.68;;
24084;SDS011;12268;52.110;5.548;2023-11-19T10:13:01;22.88;;;6.20;;
24084;SDS011;12268;52.110;5.548;2023-11-19T10:15:27;26.50;;;4.32;;
24084;SDS011;12268;52.110;5.548;2023-11-19T10:17:56;25.13;;;4.57;;
24084;SDS011;12268;52.110;5.548;2023-11-19T10:20:22;22.40;;;4.50;;
24084;SDS011;12268;52.110;5.548;2023-11-19T10:22:48;28.30;;;4.80;;
24084;SDS011;12268;52.110;5.548;2023-11-19T10:25:24;29.83;;;4.88;;
24084;SDS011;12268;52.110;5.548;2023-11-19T10:27:51;27.95;;;4.65;;
24084;SDS011;12268;52.110;5.548;2023-11-19T10:30:17;31.42;;;5.57;;
24084;SDS011;12268;52.110;5.548;2023-11-19T10:33:01;24.92;;;5.43;;
24084;SDS011;12268;52.110;5.548;2023-11-19T10:35:27;28.15;;;3.85;;
24084;SDS011;12268;52.110;5.548;2023-11-19T10:37:53;35.33;;;5.50;;
24084;SDS011;12268;52.110;5.548;2023-11-19T10:40:18;27.50;;;4.68;;
24084;SDS011;12268;52.110;5.548;2023-11-19T10:42:44;26.75;;;4.50;;
24084;SDS011;12268;52.110;5.548;2023-11-19T10:45:21;36.25;;;5.55;;
24084;SDS011;12268;52.110;5.548;2023-11-19T10:47:48;21.65;;;3.35;;
24084;SDS011;12268;52.110;5.548;2023-11-19T10:50:16;25.50;;;4.22;;
24084;SDS011;12268;52.110;5.548;2023-11-19T10:52:41;33.88;;;6.85;;
24084;SDS011;12268;52.110;5.548;2023-11-19T10:55:09;28.33;;;4.50;;
24084;SDS011;12268;52.110;5.548;2023-11-19T10:57:39;28.23;;;4.37;;
24084;SDS011;12268;52.110;5.548;2023-11-19T11:00:11;31.65;;;4.28;;
24084;SDS011;12268;52.110;5.548;2023-11-19T11:02:41;31.38;;;4.32;;
24084;SDS011;12268;52.110;5.548;2023-11-19T11:05:12;33.78;;;6.50;;
24084;SDS011;12268;52.110;5.548;2023-11-19T11:07:39;25.77;;;4.43;;
24084;SDS011;12268;52.110;5.548;2023-11-19T11:10:07;34.15;;;5.15;;
24084;SDS011;12268;52.110;5.548;2023-11-19T11:12:35;28.73;;;3.95;;
24084;SDS011;12268;52.110;5.548;2023-11-19T11:15:02;20.33;;;4.60;;
24084;SDS011;12268;52.110;5.548;2023-11-19T11:17:30;23.30;;;4.55;;
24084;SDS011;12268;52.110;5.548;2023-11-19T11:19:58;28.83;;;4.13;;
24084;SDS011;12268;52.110;5.548;2023-11-19T11:22:24;28.52;;;4.82;;
24084;SDS011;12268;52.110;5.548;2023-11-19T11:24:59;21.60;;;4.38;;
24084;SDS011;12268;52.110;5.548;2023-11-19T11:35:53;16.45;;;3.55;;
24084;SDS011;12268;52.110;5.548;2023-11-19T11:38:27;25.23;;;4.10;;
24084;SDS011;12268;52.110;5.548;2023-11-19T11:43:45;36.85;;;5.50;;
24084;SDS011;12268;52.110;5.548;2023-11-19T11:46:57;22.23;;;5.43;;
24084;SDS011;12268;52.110;5.548;2023-11-19T11:49:08;28.00;;;4.60;;
24084;SDS011;12268;52.110;5.548;2023-11-19T11:54:30;18.92;;;3.67;;
24084;SDS011;12268;52.110;5.548;2023-11-19T11:57:12;25.65;;;4.47;;
24084;SDS011;12268;52.110;5.548;2023-11-19T12:02:19;20.58;;;4.03;;
24084;SDS011;12268;52.110;5.548;2023-11-19T12:04:47;25.98;;;4.53;;
24084;SDS011;12268;52.110;5.548;2023-11-19T12:07:16;21.88;;;4.30;;
24084;SDS011;12268;52.110;5.548;2023-11-19T12:09:47;29.63;;;4.15;;
24084;SDS011;12268;52.110;5.548;2023-11-19T12:12:22;32.35;;;4.97;;
24084;SDS011;12268;52.110;5.548;2023-11-19T12:15:00;17.83;;;3.17;;
24084;SDS011;12268;52.110;5.548;2023-11-19T12:20:01;24.35;;;3.92;;
24084;SDS011;12268;52.110;5.548;2023-11-19T12:22:28;20.85;;;3.42;;
24084;SDS011;12268;52.110;5.548;2023-11-19T12:24:54;19.92;;;3.63;;
24084;SDS011;12268;52.110;5.548;2023-11-19T12:27:20;25.25;;;5.22;;
24084;SDS011;12268;52.110;5.548;2023-11-19T12:29:49;23.75;;;3.88;;
24084;SDS011;12268;52.110;5.548;2023-11-19T12:32:15;18.90;;;3.53;;
24084;SDS011;12268;52.110;5.548;2023-11-19T12:34:40;21.80;;;4.28;;
24084;SDS011;12268;52.110;5.548;2023-11-19T12:37:06;14.07;;;2.70;;
24084;SDS011;12268;52.110;5.548;2023-11-19T12:39:33;18.10;;;3.53;;
24084;SDS011;12268;52.110;5.548;2023-11-19T12:41:59;29.63;;;4.05;;
24084;SDS011;12268;52.110;5.548;2023-11-19T12:44:24;22.83;;;3.67;;
24084;SDS011;12268;52.110;5.548;2023-11-19T12:47:03;23.05;;;3.55;;
24084;SDS011;12268;52.110;5.548;2023-11-19T12:49:31;9.77;;;2.15;;
24084;SDS011;12268;52.110;5.548;2023-11-19T12:51:58;18.23;;;3.10;;
24084;SDS011;12268;52.110;5.548;2023-11-19T12:54:37;24.80;;;3.78;;
24084;SDS011;12268;52.110;5.548;2023-11-19T12:57:03;30.45;;;4.25;;
24084;SDS011;12268;52.110;5.548;2023-11-19T12:59:30;23.20;;;3.50;;
24084;SDS011;12268;52.110;5.548;2023-11-19T13:01:56;16.48;;;3.30;;
24084;SDS011;12268;52.110;5.548;2023-11-19T13:04:23;21.73;;;4.15;;
24084;SDS011;12268;52.110;5.548;2023-11-19T13:06:52;17.13;;;3.17;;
24084;SDS011;12268;52.110;5.548;2023-11-19T13:09:21;19.38;;;3.70;;
24084;SDS011;12268;52.110;5.548;2023-11-19T13:11:56;26.73;;;4.05;;
24084;SDS011;12268;52.110;5.548;2023-11-19T13:14:23;26.55;;;4.13;;
24084;SDS011;12268;52.110;5.548;2023-11-19T13:16:49;25.42;;;3.78;;
24084;SDS011;12268;52.110;5.548;2023-11-19T13:19:17;13.82;;;3.00;;
24084;SDS011;12268;52.110;5.548;2023-11-19T13:21:44;24.67;;;4.57;;
24084;SDS011;12268;52.110;5.548;2023-11-19T13:24:12;26.83;;;5.10;;
24084;SDS011;12268;52.110;5.548;2023-11-19T13:26:38;25.50;;;3.60;;
24084;SDS011;12268;52.110;5.548;2023-11-19T13:29:03;28.48;;;3.75;;
24084;SDS011;12268;52.110;5.548;2023-11-19T13:31:29;27.30;;;4.10;;
24084;SDS011;12268;52.110;5.548;2023-11-19T13:33:54;20.23;;;3.78;;
24084;SDS011;12268;52.110;5.548;2023-11-19T13:36:21;20.27;;;3.95;;
24084;SDS011;12268;52.110;5.548;2023-11-19T13:38:47;27.25;;;3.47;;
24084;SDS011;12268;52.110;5.548;2023-11-19T13:41:12;30.98;;;5.03;;
24084;SDS011;12268;52.110;5.548;2023-11-19T13:43:38;25.27;;;4.60;;
24084;SDS011;12268;52.110;5.548;2023-11-19T13:46:05;33.10;;;4.80;;
24084;SDS011;12268;52.110;5.548;2023-11-19T13:48:31;25.88;;;4.32;;
24084;SDS011;12268;52.110;5.548;2023-11-19T13:50:57;25.42;;;4.35;;
24084;SDS011;12268;52.110;5.548;2023-11-19T13:53:23;28.65;;;4.75;;
24084;SDS011;12268;52.110;5.548;2023-11-19T13:55:49;30.63;;;4.70;;
24084;SDS011;12268;52.110;5.548;2023-11-19T13:58:15;21.42;;;3.70;;
24084;SDS011;12268;52.110;5.548;2023-11-19T14:00:41;24.73;;;3.83;;
24084;SDS011;12268;52.110;5.548;2023-11-19T14:03:07;29.90;;;4.78;;
24084;SDS011;12268;52.110;5.548;2023-11-19T14:05:33;29.08;;;4.22;;
24084;SDS011;12268;52.110;5.548;2023-11-19T14:07:58;26.77;;;4.07;;
24084;SDS011;12268;52.110;5.548;2023-11-19T14:10:24;24.60;;;3.70;;
24084;SDS011;12268;52.110;5.548;2023-11-19T14:12:49;23.42;;;3.92;;
24084;SDS011;12268;52.110;5.548;2023-11-19T14:15:15;24.77;;;4.15;;
24084;SDS011;12268;52.110;5.548;2023-11-19T14:17:44;26.73;;;3.88;;
24084;SDS011;12268;52.110;5.548;2023-11-19T14:20:09;17.85;;;3.25;;
24084;SDS011;12268;52.110;5.548;2023-11-19T14:22:41;24.10;;;4.78;;
24084;SDS011;12268;52.110;5.548;2023-11-19T14:25:08;24.50;;;4.03;;
24084;SDS011;12268;52.110;5.548;2023-11-19T14:27:37;23.13;;;3.78;;
24084;SDS011;12268;52.110;5.548;2023-11-19T14:30:07;29.42;;;4.10;;
24084;SDS011;12268;52.110;5.548;2023-11-19T14:32:36;30.52;;;5.45;;
24084;SDS011;12268;52.110;5.548;2023-11-19T14:35:02;28.33;;;5.32;;
24084;SDS011;12268;52.110;5.548;2023-11-19T14:37:28;24.98;;;4.15;;
24084;SDS011;12268;52.110;5.548;2023-11-19T14:39:55;25.45;;;4.47;;
24084;SDS011;12268;52.110;5.548;2023-11-19T14:42:22;23.90;;;3.78;;
24084;SDS011;12268;52.110;5.548;2023-11-19T14:44:51;22.67;;;3.45;;
24084;SDS011;12268;52.110;5.548;2023-11-19T14:47:20;16.27;;;3.85;;
24084;SDS011;12268;52.110;5.548;2023-11-19T14:49:46;26.42;;;5.45;;
24084;SDS011;12268;52.110;5.548;2023-11-19T14:52:12;16.17;;;3.53;;
24084;SDS011;12268;52.110;5.548;2023-11-19T14:54:38;32.20;;;4.63;;
24084;SDS011;12268;52.110;5.548;2023-11-19T14:57:04;22.55;;;3.55;;
24084;SDS011;12268;52.110;5.548;2023-11-19T14:59:31;21.35;;;3.78;;
24084;SDS011;12268;52.110;5.548;2023-11-19T15:01:57;20.38;;;4.40;;
24084;SDS011;12268;52.110;5.548;2023-11-19T15:04:24;23.83;;;3.70;;